Dumas, AR (71639)

11:35 PM CDT on July 29, 2015 (GMT -0500)
McGehee-Wolfe Dr | | Change Station
CLOSE
Current Station
Personal Weather Station
Location: McGehee, AR
Elevation: 171 ft
Nearby Weather Stations
Active Advisory: Flood Warning

Elev 171 ft 33.64 °N, 91.40 °W | Updated 12 minutes ago

Clear
Clear
83.1 °F
Feels Like 94 °F
N
0.0
Wind Variable Wind from SW

Today
High -- | Low -- °F
--% Chance of Precip.
Yesterday
High -- | Low -- °F
Precip. -- in
6:15 AM 8:09 PM
Waxing Gibbous, 98% visible
Pressure 30.01 in
Visibility 9.0 miles
Clouds Clear
Heat Index 94 °F
Dew Point 78 °F
Humidity 86%
Rainfall 0.00 in
Snow Depth Not available.
UV 0 out of 12
Pollen 4.40 out of 12
Air Quality Not available.
Flu Activity Not available.
METAR KLLQ 300353Z AUTO 00000KT 9SM CLR 28/26 A3002 RMK AO2 SLP163 T02830261

More Conditions Fewer Conditions

Pressure 30.01 in
Visibility 9.0 miles
Clouds Clear
Heat Index 94 °F
Dew Point 78 °F
Humidity 86%
Rainfall 0.00 in
Snow Depth Not available.
UV 0 out of 12
Pollen 4.40 out of 12
Air Quality Not available.
Flu Activity Not available.
METAR KLLQ 300353Z AUTO 00000KT 9SM CLR 28/26 A3002 RMK AO2 SLP163 T02830261

More Conditions Fewer Conditions

10-Day Weather Forecast

×

Almanac

Astronomy

Jul. 29, 2015 Rise Set
Actual Time
Civil Twilight
Nautical Twilight
Astronomical Twilight
Moon
Length of Visible Light
Length of Day
Tomorrow will be .
, % of the Moon is Illuminated

Today's Extremes

State Highs State Lows

Community

WunderPhotos

Upload Photos

1,842,304 photos uploaded!

WunderBlogs® & News

Nearby

Air Quality

  Air Quality AQ Index Pollutant
Not available.

Snow Depth

Station Depth Elevation

Earthquake Activity

City Distance Mag. Time & Date
Minimum magnitude displayed is 2.5.

Coastal Water Temperatures

Place Temperature

Stations

Nearby Weather Stations

Station Location Temp. Windchill Dew Point Humidity Wind Precip. Elev Updated Type
                   
Flood Warning
Statement as of 8:00 PM CDT on July 29, 2015


The Flood Warning continues for
the Mississippi River near Arkansas City
* until late Thursday night.
* At 7:00 PM Wednesday the stage was 37.3 feet.
* Minor flooding is occurring and minor flooding is forecast.
* Flood stage is 37.0 feet.
* Forecast... the river will continue falling and will fall below
flood stage by early tomorrow afternoon.


              Flood observed forecast 7 am crest
location stg stg day time Thu Fri Sat crest time date

Lower Mississippi River
Arkansas City 37 37.3 Wed 07 PM 37.1 36.6 36.0 falling




Lat... Lon 3340 9128 3357 9128 3413 9108 3412 9066
      3358 9106 3340 9105